sensor_id;sensor_type;location;lat;lon;timestamp;pressure;altitude;pressure_sealevel;temperature;humidity
36254;BME280;22291;52.250;21.228;2023-02-13T20:45:19;101769.23;;;4.63;81.36
36254;BME280;22291;52.250;21.228;2023-02-13T20:47:45;101755.64;;;4.56;81.28
36254;BME280;22291;52.250;21.228;2023-02-13T20:50:12;101770.96;;;4.58;81.50
36254;BME280;22291;52.250;21.228;2023-02-13T20:52:39;101771.03;;;4.60;81.51
36254;BME280;22291;52.250;21.228;2023-02-13T20:55:06;101770.58;;;4.63;81.48
36254;BME280;22291;52.250;21.228;2023-02-13T20:57:34;101769.51;;;4.64;81.55
36254;BME280;22291;52.250;21.228;2023-02-13T21:00:03;101769.58;;;4.67;81.36
36254;BME280;22291;52.250;21.228;2023-02-13T21:02:31;101765.10;;;4.70;81.55
36254;BME280;22291;52.250;21.228;2023-02-13T21:04:57;101767.78;;;4.70;81.40
36254;BME280;22291;52.250;21.228;2023-02-13T21:07:23;101769.16;;;4.73;81.41
36254;BME280;22291;52.250;21.228;2023-02-13T21:09:50;101763.00;;;4.72;81.06
36254;BME280;22291;52.250;21.228;2023-02-13T21:12:16;101767.83;;;4.73;81.05
36254;BME280;22291;52.250;21.228;2023-02-13T21:14:42;101768.36;;;4.72;81.01
36254;BME280;22291;52.250;21.228;2023-02-13T21:17:09;101754.38;;;4.70;80.91
36254;BME280;22291;52.250;21.228;2023-02-13T21:19:35;101753.77;;;4.68;80.79
36254;BME280;22291;52.250;21.228;2023-02-13T21:22:02;101758.56;;;4.66;80.84
36254;BME280;22291;52.250;21.228;2023-02-13T21:24:39;101760.36;;;4.63;80.93
36254;BME280;22291;52.250;21.228;2023-02-13T21:27:07;101764.38;;;4.63;80.96
36254;BME280;22291;52.250;21.228;2023-02-13T21:29:35;101768.36;;;4.60;81.05
36254;BME280;22291;52.250;21.228;2023-02-13T21:32:02;101762.19;;;4.60;81.07
36254;BME280;22291;52.250;21.228;2023-02-13T21:34:29;101764.03;;;4.59;81.10
36254;BME280;22291;52.250;21.228;2023-02-13T21:36:55;101761.58;;;4.58;81.13
36254;BME280;22291;52.250;21.228;2023-02-13T21:39:22;101759.13;;;4.56;81.14
36254;BME280;22291;52.250;21.228;2023-02-13T21:41:48;101754.84;;;4.55;81.16
36254;BME280;22291;52.250;21.228;2023-02-13T21:44:15;101755.06;;;4.54;81.21
36254;BME280;22291;52.250;21.228;2023-02-13T21:46:43;101750.70;;;4.50;81.25
36254;BME280;22291;52.250;21.228;2023-02-13T21:49:12;101753.66;;;4.51;81.33
36254;BME280;22291;52.250;21.228;2023-02-13T21:51:40;101759.02;;;4.51;81.39
36254;BME280;22291;52.250;21.228;2023-02-13T21:54:08;101761.42;;;4.50;81.41
36254;BME280;22291;52.250;21.228;2023-02-13T21:56:36;101757.94;;;4.49;81.41
36254;BME280;22291;52.250;21.228;2023-02-13T21:59:04;101750.12;;;4.48;81.42
36254;BME280;22291;52.250;21.228;2023-02-13T22:01:35;101748.78;;;4.48;81.43
36254;BME280;22291;52.250;21.228;2023-02-13T22:04:05;101744.46;;;4.47;81.44
36254;BME280;22291;52.250;21.228;2023-02-13T22:06:35;101744.69;;;4.45;81.49
36254;BME280;22291;52.250;21.228;2023-02-13T22:09:11;101743.30;;;4.43;81.53
36254;BME280;22291;52.250;21.228;2023-02-13T22:11:39;101755.64;;;4.44;81.53
36254;BME280;22291;52.250;21.228;2023-02-13T22:14:10;101750.81;;;4.43;81.61
36254;BME280;22291;52.250;21.228;2023-02-13T22:16:37;101758.04;;;4.43;81.63
36254;BME280;22291;52.250;21.228;2023-02-13T22:19:05;101756.40;;;4.42;81.70
36254;BME280;22291;52.250;21.228;2023-02-13T22:21:33;101754.75;;;4.41;81.74
36254;BME280;22291;52.250;21.228;2023-02-13T22:24:01;101753.67;;;4.39;81.72
36254;BME280;22291;52.250;21.228;2023-02-13T22:26:30;101761.17;;;4.40;81.82
36254;BME280;22291;52.250;21.228;2023-02-13T22:29:04;101757.69;;;4.39;81.86
36254;BME280;22291;52.250;21.228;2023-02-13T22:31:30;101757.16;;;4.40;81.87
36254;BME280;22291;52.250;21.228;2023-02-13T22:33:56;101754.17;;;4.39;81.94
36254;BME280;22291;52.250;21.228;2023-02-13T22:36:24;101758.19;;;4.39;81.96
36254;BME280;22291;52.250;21.228;2023-02-13T22:38:51;101750.69;;;4.38;81.99
36254;BME280;22291;52.250;21.228;2023-02-13T22:41:20;101750.46;;;4.40;82.01
36254;BME280;22291;52.250;21.228;2023-02-13T22:43:50;101747.70;;;4.37;81.97
36254;BME280;22291;52.250;21.228;2023-02-13T22:46:18;101743.41;;;4.36;82.04
36254;BME280;22291;52.250;21.228;2023-02-13T22:48:47;101743.91;;;4.36;82.06
36254;BME280;22291;52.250;21.228;2023-02-13T22:51:16;101754.36;;;4.35;82.12
36254;BME280;22291;52.250;21.228;2023-02-13T22:53:44;101746.32;;;4.35;82.20
36254;BME280;22291;52.250;21.228;2023-02-13T22:56:13;101746.24;;;4.32;82.22
36254;BME280;22291;52.250;21.228;2023-02-13T22:58:39;101740.08;;;4.32;82.28
36254;BME280;22291;52.250;21.228;2023-02-13T23:01:12;101741.11;;;4.30;82.36
36254;BME280;22291;52.250;21.228;2023-02-13T23:03:42;101737.63;;;4.30;82.41
36254;BME280;22291;52.250;21.228;2023-02-13T23:06:11;101751.02;;;4.30;82.44
36254;BME280;22291;52.250;21.228;2023-02-13T23:08:38;101756.91;;;4.29;82.51
36254;BME280;22291;52.250;21.228;2023-02-13T23:11:09;101754.46;;;4.28;82.46
36254;BME280;22291;52.250;21.228;2023-02-13T23:13:58;101763.30;;;4.28;82.58
36254;BME280;22291;52.250;21.228;2023-02-13T23:16:24;101766.52;;;4.28;82.61
36254;BME280;22291;52.250;21.228;2023-02-13T23:18:53;101773.48;;;4.29;82.67
36254;BME280;22291;52.250;21.228;2023-02-13T23:21:20;101770.77;;;4.26;82.76
36254;BME280;22291;52.250;21.228;2023-02-13T23:23:48;101769.20;;;4.28;82.73
36254;BME280;22291;52.250;21.228;2023-02-13T23:26:15;101773.44;;;4.26;82.77
36254;BME280;22291;52.250;21.228;2023-02-13T23:28:41;101775.54;;;4.24;82.83
36254;BME280;22291;52.250;21.228;2023-02-13T23:31:07;101769.95;;;4.26;82.86
36254;BME280;22291;52.250;21.228;2023-02-13T23:33:34;101776.92;;;4.27;82.87
36254;BME280;22291;52.250;21.228;2023-02-13T23:36:00;101765.94;;;4.26;82.93
36254;BME280;22291;52.250;21.228;2023-02-13T23:38:27;101770.23;;;4.27;82.97
36254;BME280;22291;52.250;21.228;2023-02-13T23:40:53;101767.55;;;4.27;82.91
36254;BME280;22291;52.250;21.228;2023-02-13T23:43:19;101771.06;;;4.27;82.95
36254;BME280;22291;52.250;21.228;2023-02-13T23:45:45;101765.71;;;4.27;82.92
36254;BME280;22291;52.250;21.228;2023-02-13T23:48:12;101760.58;;;4.26;82.98
36254;BME280;22291;52.250;21.228;2023-02-13T23:50:38;101749.03;;;4.25;83.01
36254;BME280;22291;52.250;21.228;2023-02-13T23:53:05;101746.08;;;4.24;82.99
36254;BME280;22291;52.250;21.228;2023-02-13T23:55:31;101748.22;;;4.25;83.05
36254;BME280;22291;52.250;21.228;2023-02-13T23:57:57;101743.67;;;4.25;83.11
